ADC006 SKEJ-SKAR
Flight info
| Callsign | ADC006 |
|---|---|
| Flight time | 0h 52m |
| Altitude | 20000 |
| Route | AKSO1A AKSOK MATRO MATR1H |
| Aircraft | AT76/M-SKBO/2200 |
Departure
| Time | 2026-04-21 15:14 |
|---|---|
| Airport | Yariguíes Airport (SKEJ) |
Arrival
| Time | 2026-04-21 16:07 |
|---|---|
| Airport | El Eden Airport (SKAR) |
| Time | Latitude | Longitude | Altitude | Speed | Heading |
|---|---|---|---|---|---|
| 2026-04-21 14:57 | 7.02504 | -73.80813 | 419 ft | 0 kts | 300° |
| 2026-04-21 15:03 | 7.02498 | -73.80802 | 419 ft | 2 kts | 300° |
| 2026-04-21 15:03 | 7.02489 | -73.80785 | 419 ft | 3 kts | 299° |
| 2026-04-21 15:03 | 7.02480 | -73.80769 | 419 ft | 0 kts | 300° |
| 2026-04-21 15:10 | 7.02481 | -73.80774 | 419 ft | 4 kts | 276° |
| 2026-04-21 15:11 | 7.02443 | -73.80802 | 419 ft | 12 kts | 200° |
| 2026-04-21 15:11 | 7.02344 | -73.80842 | 419 ft | 14 kts | 202° |
| 2026-04-21 15:11 | 7.02260 | -73.80892 | 419 ft | 13 kts | 212° |
| 2026-04-21 15:11 | 7.02166 | -73.80889 | 419 ft | 19 kts | 168° |
| 2026-04-21 15:12 | 7.02063 | -73.80909 | 419 ft | 15 kts | 210° |
| 2026-04-21 15:12 | 7.01973 | -73.80962 | 419 ft | 17 kts | 210° |
| 2026-04-21 15:12 | 7.01899 | -73.81006 | 419 ft | 12 kts | 212° |
| 2026-04-21 15:12 | 7.01826 | -73.81051 | 419 ft | 14 kts | 210° |
| 2026-04-21 15:13 | 7.01755 | -73.81073 | 419 ft | 0 kts | 223° |
| 2026-04-21 15:13 | 7.01752 | -73.81089 | 419 ft | 5 kts | 296° |
| 2026-04-21 15:13 | 7.01770 | -73.81087 | 419 ft | 5 kts | 36° |
| 2026-04-21 15:13 | 7.01888 | -73.81018 | 419 ft | 51 kts | 31° |
| 2026-04-21 15:14 | 7.02426 | -73.80695 | 419 ft | 121 kts | 32° |
| 2026-04-21 15:14 | 7.03244 | -73.80194 | 464 ft | 147 kts | 31° |
| 2026-04-21 15:14 | 7.04127 | -73.79648 | 758 ft | 153 kts | 32° |
| 2026-04-21 15:14 | 7.05028 | -73.79018 | 1090 ft | 165 kts | 41° |
| 2026-04-21 15:15 | 7.05559 | -73.77950 | 1246 ft | 186 kts | 80° |
| 2026-04-21 15:15 | 7.05384 | -73.76587 | 1366 ft | 207 kts | 110° |
| 2026-04-21 15:15 | 7.04744 | -73.75249 | 1662 ft | 215 kts | 118° |
| 2026-04-21 15:15 | 7.04039 | -73.73902 | 1985 ft | 219 kts | 115° |
| 2026-04-21 15:16 | 7.03504 | -73.72475 | 2320 ft | 220 kts | 106° |
| 2026-04-21 15:16 | 7.03212 | -73.70960 | 2661 ft | 223 kts | 96° |
| 2026-04-21 15:16 | 7.03126 | -73.69380 | 3015 ft | 224 kts | 89° |
| 2026-04-21 15:16 | 7.02925 | -73.67823 | 3310 ft | 230 kts | 107° |
| 2026-04-21 15:17 | 7.02021 | -73.66483 | 3586 ft | 235 kts | 136° |
| 2026-04-21 15:17 | 7.00591 | -73.65726 | 3869 ft | 237 kts | 164° |
| 2026-04-21 15:17 | 6.98964 | -73.65728 | 4163 ft | 236 kts | 193° |
| 2026-04-21 15:17 | 6.97508 | -73.66493 | 4450 ft | 236 kts | 219° |
| 2026-04-21 15:18 | 6.96355 | -73.67643 | 4809 ft | 234 kts | 229° |
| 2026-04-21 15:18 | 6.95270 | -73.68858 | 5168 ft | 234 kts | 227° |
| 2026-04-21 15:18 | 6.94100 | -73.69996 | 5489 ft | 235 kts | 221° |
| 2026-04-21 15:18 | 6.92796 | -73.71014 | 5792 ft | 237 kts | 215° |
| 2026-04-21 15:19 | 6.91397 | -73.71898 | 6095 ft | 238 kts | 210° |
| 2026-04-21 15:19 | 6.89940 | -73.72676 | 6395 ft | 239 kts | 206° |
| 2026-04-21 15:19 | 6.88432 | -73.73387 | 6697 ft | 239 kts | 204° |
| 2026-04-21 15:19 | 6.86904 | -73.74052 | 6997 ft | 239 kts | 203° |
| 2026-04-21 15:20 | 6.85372 | -73.74695 | 7296 ft | 240 kts | 202° |
| 2026-04-21 15:20 | 6.83817 | -73.75344 | 7599 ft | 240 kts | 202° |
| 2026-04-21 15:20 | 6.82284 | -73.75985 | 7897 ft | 240 kts | 202° |
| 2026-04-21 15:20 | 6.80733 | -73.76635 | 8199 ft | 240 kts | 202° |
| 2026-04-21 15:21 | 6.79193 | -73.77282 | 8498 ft | 240 kts | 202° |
| 2026-04-21 15:21 | 6.77637 | -73.77936 | 8801 ft | 240 kts | 202° |
| 2026-04-21 15:21 | 6.76088 | -73.78588 | 9102 ft | 240 kts | 202° |
| 2026-04-21 15:21 | 6.74561 | -73.79231 | 9398 ft | 240 kts | 202° |
| 2026-04-21 15:22 | 6.73018 | -73.79881 | 9699 ft | 240 kts | 202° |
| 2026-04-21 15:22 | 6.71470 | -73.80533 | 9999 ft | 240 kts | 202° |
| 2026-04-21 15:22 | 6.69927 | -73.81183 | 10300 ft | 240 kts | 202° |
| 2026-04-21 15:22 | 6.68384 | -73.81831 | 10600 ft | 240 kts | 203° |
| 2026-04-21 15:23 | 6.66841 | -73.82481 | 10901 ft | 240 kts | 203° |
| 2026-04-21 15:23 | 6.65303 | -73.83129 | 11200 ft | 240 kts | 203° |
| 2026-04-21 15:23 | 6.63753 | -73.83783 | 11502 ft | 240 kts | 203° |
| 2026-04-21 15:23 | 6.62218 | -73.84431 | 11801 ft | 240 kts | 203° |
| 2026-04-21 15:24 | 6.60677 | -73.85081 | 12100 ft | 241 kts | 203° |
| 2026-04-21 15:24 | 6.59123 | -73.85736 | 12402 ft | 241 kts | 203° |
| 2026-04-21 15:24 | 6.57575 | -73.86388 | 12702 ft | 241 kts | 203° |
| 2026-04-21 15:24 | 6.56027 | -73.87041 | 13002 ft | 242 kts | 203° |
| 2026-04-21 15:25 | 6.54491 | -73.87688 | 13299 ft | 242 kts | 203° |
| 2026-04-21 15:25 | 6.52917 | -73.88351 | 13602 ft | 243 kts | 203° |
| 2026-04-21 15:25 | 6.51368 | -73.89004 | 13901 ft | 243 kts | 203° |
| 2026-04-21 15:25 | 6.49815 | -73.89659 | 14199 ft | 243 kts | 203° |
| 2026-04-21 15:26 | 6.48255 | -73.90357 | 14497 ft | 244 kts | 209° |
| 2026-04-21 15:26 | 6.46903 | -73.91350 | 14800 ft | 243 kts | 221° |
| 2026-04-21 15:26 | 6.45694 | -73.92555 | 15105 ft | 243 kts | 227° |
| 2026-04-21 15:26 | 6.44576 | -73.93844 | 15407 ft | 244 kts | 230° |
| 2026-04-21 15:27 | 6.43520 | -73.95155 | 15704 ft | 244 kts | 232° |
| 2026-04-21 15:27 | 6.42468 | -73.96515 | 16006 ft | 244 kts | 232° |
| 2026-04-21 15:27 | 6.41444 | -73.97867 | 16304 ft | 245 kts | 233° |
| 2026-04-21 15:27 | 6.40412 | -73.99247 | 16607 ft | 245 kts | 233° |
| 2026-04-21 15:28 | 6.39398 | -74.00612 | 16904 ft | 246 kts | 233° |
| 2026-04-21 15:28 | 6.38365 | -74.02011 | 17208 ft | 247 kts | 233° |
| 2026-04-21 15:28 | 6.37351 | -74.03388 | 17506 ft | 247 kts | 233° |
| 2026-04-21 15:28 | 6.36322 | -74.04788 | 17808 ft | 248 kts | 234° |
| 2026-04-21 15:29 | 6.35307 | -74.06170 | 18106 ft | 248 kts | 234° |
| 2026-04-21 15:29 | 6.34270 | -74.07586 | 18410 ft | 249 kts | 233° |
| 2026-04-21 15:29 | 6.33247 | -74.08982 | 18708 ft | 250 kts | 233° |
| 2026-04-21 15:29 | 6.32213 | -74.10393 | 19009 ft | 250 kts | 234° |
| 2026-04-21 15:30 | 6.31179 | -74.11803 | 19308 ft | 251 kts | 233° |
| 2026-04-21 15:30 | 6.30146 | -74.13217 | 19606 ft | 252 kts | 233° |
| 2026-04-21 15:30 | 6.29102 | -74.14642 | 19863 ft | 254 kts | 233° |
| 2026-04-21 15:30 | 6.28036 | -74.16096 | 19974 ft | 262 kts | 233° |
| 2026-04-21 15:31 | 6.26937 | -74.17595 | 20000 ft | 272 kts | 233° |
| 2026-04-21 15:31 | 6.25804 | -74.19140 | 20001 ft | 280 kts | 233° |
| 2026-04-21 15:31 | 6.24640 | -74.20728 | 19999 ft | 286 kts | 233° |
| 2026-04-21 15:31 | 6.23452 | -74.22349 | 19995 ft | 289 kts | 233° |
| 2026-04-21 15:32 | 6.22252 | -74.23986 | 19989 ft | 291 kts | 233° |
| 2026-04-21 15:32 | 6.21043 | -74.25635 | 19984 ft | 293 kts | 233° |
| 2026-04-21 15:32 | 6.19830 | -74.27291 | 19980 ft | 293 kts | 233° |
| 2026-04-21 15:32 | 6.18630 | -74.28928 | 19975 ft | 294 kts | 233° |
| 2026-04-21 15:33 | 6.17405 | -74.30600 | 19969 ft | 294 kts | 233° |
| 2026-04-21 15:33 | 6.16200 | -74.32243 | 19959 ft | 294 kts | 233° |
| 2026-04-21 15:33 | 6.14983 | -74.33904 | 19955 ft | 294 kts | 233° |
| 2026-04-21 15:33 | 6.13768 | -74.35562 | 19954 ft | 294 kts | 233° |
| 2026-04-21 15:34 | 6.12548 | -74.37225 | 19954 ft | 294 kts | 233° |
| 2026-04-21 15:34 | 6.11337 | -74.38877 | 19954 ft | 294 kts | 233° |
| 2026-04-21 15:34 | 6.10132 | -74.40521 | 19954 ft | 294 kts | 233° |
| 2026-04-21 15:34 | 6.08909 | -74.42188 | 19953 ft | 294 kts | 233° |
| 2026-04-21 15:35 | 6.07697 | -74.43841 | 19953 ft | 294 kts | 233° |
| 2026-04-21 15:35 | 6.06490 | -74.45487 | 19953 ft | 294 kts | 233° |
| 2026-04-21 15:35 | 6.05270 | -74.47151 | 19953 ft | 294 kts | 233° |
| 2026-04-21 15:35 | 6.04055 | -74.48807 | 19952 ft | 294 kts | 233° |
| 2026-04-21 15:36 | 6.02850 | -74.50450 | 19952 ft | 294 kts | 233° |
| 2026-04-21 15:36 | 6.01625 | -74.52119 | 19952 ft | 294 kts | 233° |
| 2026-04-21 15:36 | 6.00419 | -74.53762 | 19952 ft | 294 kts | 233° |
| 2026-04-21 15:36 | 5.99204 | -74.55419 | 19950 ft | 294 kts | 233° |
| 2026-04-21 15:37 | 5.97985 | -74.57079 | 19950 ft | 294 kts | 233° |
| 2026-04-21 15:37 | 5.96783 | -74.58717 | 19950 ft | 294 kts | 233° |
| 2026-04-21 15:37 | 5.95567 | -74.60375 | 19950 ft | 293 kts | 233° |
| 2026-04-21 15:37 | 5.94355 | -74.62025 | 19950 ft | 293 kts | 233° |
| 2026-04-21 15:38 | 5.93545 | -74.63129 | 19950 ft | 293 kts | 233° |
| 2026-04-21 15:38 | 5.91939 | -74.65316 | 19950 ft | 293 kts | 233° |
| 2026-04-21 15:38 | 5.91116 | -74.66437 | 19950 ft | 293 kts | 233° |
| 2026-04-21 15:38 | 5.89917 | -74.68070 | 19950 ft | 293 kts | 233° |
| 2026-04-21 15:39 | 5.88694 | -74.69735 | 19950 ft | 293 kts | 233° |
| 2026-04-21 15:39 | 5.87487 | -74.71378 | 19949 ft | 293 kts | 233° |
| 2026-04-21 15:39 | 5.86283 | -74.73018 | 19949 ft | 293 kts | 233° |
| 2026-04-21 15:39 | 5.85062 | -74.74681 | 19949 ft | 293 kts | 233° |
| 2026-04-21 15:40 | 5.83853 | -74.76327 | 19949 ft | 293 kts | 233° |
| 2026-04-21 15:40 | 5.82644 | -74.77973 | 19948 ft | 293 kts | 233° |
| 2026-04-21 15:40 | 5.81426 | -74.79630 | 19948 ft | 293 kts | 233° |
| 2026-04-21 15:40 | 5.80226 | -74.81262 | 19947 ft | 293 kts | 233° |
| 2026-04-21 15:41 | 5.79001 | -74.82930 | 19948 ft | 293 kts | 233° |
| 2026-04-21 15:41 | 5.77801 | -74.84563 | 19948 ft | 293 kts | 233° |
| 2026-04-21 15:41 | 5.76584 | -74.86219 | 19948 ft | 293 kts | 233° |
| 2026-04-21 15:41 | 5.75381 | -74.87855 | 19948 ft | 293 kts | 233° |
| 2026-04-21 15:42 | 5.74166 | -74.89508 | 19948 ft | 293 kts | 233° |
| 2026-04-21 15:42 | 5.72966 | -74.91140 | 19948 ft | 293 kts | 233° |
| 2026-04-21 15:42 | 5.71750 | -74.92795 | 19949 ft | 293 kts | 233° |
| 2026-04-21 15:42 | 5.70543 | -74.94437 | 19949 ft | 293 kts | 233° |
| 2026-04-21 15:43 | 5.69321 | -74.96097 | 19949 ft | 293 kts | 233° |
| 2026-04-21 15:43 | 5.68116 | -74.97737 | 19949 ft | 293 kts | 233° |
| 2026-04-21 15:43 | 5.66901 | -74.99389 | 19949 ft | 293 kts | 233° |
| 2026-04-21 15:43 | 5.65698 | -75.01024 | 19948 ft | 293 kts | 233° |
| 2026-04-21 15:44 | 5.64488 | -75.02670 | 19946 ft | 293 kts | 233° |
| 2026-04-21 15:44 | 5.63283 | -75.04308 | 19946 ft | 293 kts | 233° |
| 2026-04-21 15:44 | 5.62063 | -75.05965 | 19946 ft | 293 kts | 233° |
| 2026-04-21 15:44 | 5.60848 | -75.07618 | 19946 ft | 293 kts | 233° |
| 2026-04-21 15:45 | 5.59651 | -75.09244 | 19947 ft | 293 kts | 233° |
| 2026-04-21 15:45 | 5.58430 | -75.10904 | 19946 ft | 293 kts | 233° |
| 2026-04-21 15:45 | 5.57217 | -75.12551 | 19946 ft | 293 kts | 233° |
| 2026-04-21 15:45 | 5.56013 | -75.14187 | 19946 ft | 293 kts | 233° |
| 2026-04-21 15:46 | 5.54803 | -75.15831 | 19946 ft | 293 kts | 233° |
| 2026-04-21 15:46 | 5.53597 | -75.17470 | 19946 ft | 293 kts | 233° |
| 2026-04-21 15:46 | 5.52383 | -75.19120 | 19946 ft | 293 kts | 233° |
| 2026-04-21 15:46 | 5.51175 | -75.20760 | 19946 ft | 293 kts | 233° |
| 2026-04-21 15:47 | 5.49959 | -75.22412 | 19945 ft | 293 kts | 233° |
| 2026-04-21 15:47 | 5.48749 | -75.24055 | 19945 ft | 293 kts | 233° |
| 2026-04-21 15:47 | 5.47549 | -75.25685 | 19945 ft | 293 kts | 233° |
| 2026-04-21 15:47 | 5.46335 | -75.27333 | 19945 ft | 293 kts | 233° |
| 2026-04-21 15:48 | 5.45119 | -75.28985 | 19946 ft | 293 kts | 233° |
| 2026-04-21 15:48 | 5.43919 | -75.30613 | 19946 ft | 293 kts | 233° |
| 2026-04-21 15:48 | 5.42696 | -75.32274 | 19946 ft | 293 kts | 233° |
| 2026-04-21 15:48 | 5.41501 | -75.33897 | 19946 ft | 293 kts | 233° |
| 2026-04-21 15:49 | 5.40288 | -75.35543 | 19946 ft | 293 kts | 233° |
| 2026-04-21 15:49 | 5.39072 | -75.37193 | 19946 ft | 293 kts | 233° |
| 2026-04-21 15:49 | 5.37855 | -75.38845 | 19946 ft | 293 kts | 233° |
| 2026-04-21 15:49 | 5.36655 | -75.40474 | 19946 ft | 293 kts | 233° |
| 2026-04-21 15:50 | 5.35448 | -75.42112 | 19946 ft | 293 kts | 233° |
| 2026-04-21 15:50 | 5.34221 | -75.43766 | 20009 ft | 293 kts | 233° |
| 2026-04-21 15:50 | 5.33008 | -75.45396 | 19976 ft | 294 kts | 233° |
| 2026-04-21 15:50 | 5.31782 | -75.47058 | 19957 ft | 294 kts | 233° |
| 2026-04-21 15:51 | 5.30571 | -75.48704 | 19948 ft | 294 kts | 233° |
| 2026-04-21 15:51 | 5.29372 | -75.50337 | 19946 ft | 293 kts | 233° |
| 2026-04-21 15:51 | 5.28160 | -75.51986 | 19945 ft | 293 kts | 233° |
| 2026-04-21 15:51 | 5.26947 | -75.53636 | 19945 ft | 293 kts | 233° |
| 2026-04-21 15:52 | 5.25735 | -75.55282 | 19946 ft | 293 kts | 233° |
| 2026-04-21 15:52 | 5.24535 | -75.56913 | 19946 ft | 293 kts | 233° |
| 2026-04-21 15:52 | 5.23322 | -75.58558 | 19883 ft | 295 kts | 233° |
| 2026-04-21 15:52 | 5.22092 | -75.60228 | 19694 ft | 300 kts | 233° |
| 2026-04-21 15:53 | 5.20827 | -75.61945 | 19330 ft | 307 kts | 233° |
| 2026-04-21 15:53 | 5.19556 | -75.63667 | 18933 ft | 304 kts | 233° |
| 2026-04-21 15:53 | 5.18314 | -75.65353 | 18536 ft | 302 kts | 233° |
| 2026-04-21 15:53 | 5.17063 | -75.67048 | 18133 ft | 300 kts | 233° |
| 2026-04-21 15:54 | 5.15723 | -75.68652 | 17723 ft | 298 kts | 222° |
| 2026-04-21 15:54 | 5.14009 | -75.69782 | 17331 ft | 296 kts | 207° |
| 2026-04-21 15:54 | 5.12097 | -75.70543 | 16933 ft | 295 kts | 198° |
| 2026-04-21 15:54 | 5.10117 | -75.71068 | 16408 ft | 296 kts | 192° |
| 2026-04-21 15:55 | 5.08097 | -75.71449 | 15836 ft | 294 kts | 189° |
| 2026-04-21 15:55 | 5.06065 | -75.71740 | 15258 ft | 292 kts | 187° |
| 2026-04-21 15:55 | 5.04080 | -75.71973 | 14682 ft | 283 kts | 186° |
| 2026-04-21 15:55 | 5.02133 | -75.72174 | 14102 ft | 276 kts | 185° |
| 2026-04-21 15:56 | 5.00251 | -75.72354 | 13530 ft | 272 kts | 185° |
| 2026-04-21 15:56 | 4.98371 | -75.72527 | 12927 ft | 268 kts | 185° |
| 2026-04-21 15:56 | 4.96514 | -75.72696 | 12301 ft | 267 kts | 185° |
| 2026-04-21 15:56 | 4.94682 | -75.72862 | 11680 ft | 265 kts | 185° |
| 2026-04-21 15:57 | 4.92830 | -75.73031 | 11048 ft | 264 kts | 185° |
| 2026-04-21 15:57 | 4.91012 | -75.73197 | 10425 ft | 262 kts | 185° |
| 2026-04-21 15:57 | 4.89212 | -75.73363 | 9804 ft | 261 kts | 185° |
| 2026-04-21 15:57 | 4.87411 | -75.73529 | 9175 ft | 256 kts | 185° |
| 2026-04-21 15:58 | 4.85651 | -75.73692 | 8548 ft | 251 kts | 185° |
| 2026-04-21 15:58 | 4.83925 | -75.73851 | 7923 ft | 248 kts | 185° |
| 2026-04-21 15:58 | 4.82227 | -75.73893 | 7303 ft | 245 kts | 178° |
| 2026-04-21 15:58 | 4.80549 | -75.73755 | 6950 ft | 231 kts | 172° |
| 2026-04-21 15:59 | 4.79061 | -75.73494 | 6957 ft | 207 kts | 168° |
| 2026-04-21 15:59 | 4.77710 | -75.73207 | 6935 ft | 191 kts | 167° |
| 2026-04-21 15:59 | 4.76425 | -75.72921 | 6940 ft | 186 kts | 167° |
| 2026-04-21 15:59 | 4.75190 | -75.72644 | 6942 ft | 182 kts | 167° |
| 2026-04-21 16:00 | 4.73963 | -75.72368 | 6889 ft | 182 kts | 167° |
| 2026-04-21 16:00 | 4.72697 | -75.72039 | 6578 ft | 194 kts | 164° |
| 2026-04-21 16:00 | 4.71365 | -75.71665 | 6210 ft | 202 kts | 165° |
| 2026-04-21 16:00 | 4.69986 | -75.71379 | 6033 ft | 198 kts | 170° |
| 2026-04-21 16:01 | 4.68669 | -75.71217 | 5997 ft | 188 kts | 175° |
| 2026-04-21 16:01 | 4.67392 | -75.71179 | 5989 ft | 179 kts | 181° |
| 2026-04-21 16:01 | 4.66178 | -75.71285 | 5990 ft | 171 kts | 187° |
| 2026-04-21 16:01 | 4.65045 | -75.71506 | 6089 ft | 151 kts | 193° |
| 2026-04-21 16:02 | 4.64074 | -75.71791 | 6286 ft | 156 kts | 197° |
| 2026-04-21 16:02 | 4.63017 | -75.72152 | 6132 ft | 160 kts | 199° |
| 2026-04-21 16:02 | 4.61984 | -75.72513 | 6018 ft | 154 kts | 199° |
| 2026-04-21 16:02 | 4.61003 | -75.72834 | 5979 ft | 142 kts | 197° |
| 2026-04-21 16:03 | 4.60066 | -75.73108 | 5982 ft | 136 kts | 195° |
| 2026-04-21 16:03 | 4.59158 | -75.73343 | 5997 ft | 136 kts | 193° |
| 2026-04-21 16:03 | 4.58232 | -75.73559 | 6009 ft | 139 kts | 192° |
| 2026-04-21 16:03 | 4.57263 | -75.73772 | 6007 ft | 141 kts | 192° |
| 2026-04-21 16:04 | 4.56313 | -75.73972 | 6006 ft | 142 kts | 192° |
| 2026-04-21 16:04 | 4.55339 | -75.74175 | 5988 ft | 144 kts | 193° |
| 2026-04-21 16:04 | 4.54332 | -75.74407 | 5840 ft | 151 kts | 194° |
| 2026-04-21 16:04 | 4.53297 | -75.74663 | 5609 ft | 155 kts | 195° |
| 2026-04-21 16:05 | 4.52247 | -75.74927 | 5334 ft | 158 kts | 195° |
| 2026-04-21 16:05 | 4.51174 | -75.75193 | 5066 ft | 158 kts | 194° |
| 2026-04-21 16:05 | 4.50096 | -75.75453 | 4825 ft | 157 kts | 194° |
| 2026-04-21 16:05 | 4.49081 | -75.75708 | 4713 ft | 142 kts | 193° |
| 2026-04-21 16:06 | 4.48120 | -75.75949 | 4469 ft | 143 kts | 192° |
| 2026-04-21 16:06 | 4.47156 | -75.76162 | 4261 ft | 142 kts | 192° |
| 2026-04-21 16:06 | 4.46217 | -75.76375 | 4082 ft | 127 kts | 192° |
| 2026-04-21 16:06 | 4.45471 | -75.76547 | 3996 ft | 94 kts | 192° |
| 2026-04-21 16:07 | 4.45130 | -75.76620 | 3995 ft | 0 kts | 175° |
| 2026-04-21 16:07 | 4.45129 | -75.76620 | 3995 ft | 3 kts | 175° |
| 2026-04-21 16:07 | 4.45116 | -75.76622 | 3995 ft | 5 kts | 217° |
| 2026-04-21 16:07 | 4.45119 | -75.76642 | 3995 ft | 6 kts | 338° |
| 2026-04-21 16:08 | 4.45217 | -75.76659 | 3995 ft | 12 kts | 324° |
| 2026-04-21 16:08 | 4.45281 | -75.76686 | 3995 ft | 9 kts | 308° |
| 2026-04-21 16:08 | 4.45307 | -75.76732 | 3995 ft | 2 kts | 283° |